Time;durP1;ratioP1;P1;durP2;ratioP2;P2;SDS_P1;SDS_P2;PMS_P1;PMS_P2;Temp;Humidity;BMP_temperature;BMP_pressure;BME280_temperature;BME280_humidity;BME280_pressure;Samples;Min_cycle;Max_cycle;Signal;HPM_P1;HPM_P2
2022/01/21 00:01:42;;;;;;;;;;;;;;;3.28;53.95;99809.47;4447021;32;34755;-90
2022/01/21 00:04:11;;;;;;;;;;;;;;;3.34;54.14;99819.84;4450874;32;33539;-90
2022/01/21 00:06:41;;;;;;;;;;;;;;;3.23;54.08;99813.66;4455059;32;33910;-90
2022/01/21 00:09:09;;;;;;;;;;;;;;;3.07;55.00;99806.50;4448671;32;33714;-90
2022/01/21 00:11:39;;;;;;;;;;;;;;;3.18;54.84;99815.28;4450300;32;33435;-88
2022/01/21 00:14:09;;;;;;;;;;;;;;;3.32;54.55;99820.66;4450725;32;35462;-91
2022/01/21 00:16:39;;;;;;;;;;;;;;;3.26;54.25;99820.53;4450336;32;33668;-90
2022/01/21 00:19:11;;;;;;;;;;;;;;;3.07;54.56;99827.00;4451936;32;33952;-90
2022/01/21 00:30:11;;;;;;;;;;;;;;;2.82;55.69;99831.66;4452667;32;33179;-89
2022/01/21 00:32:40;;;;;;;;;;;;;;;2.49;55.61;99830.12;4456068;32;33271;-89
2022/01/21 00:35:08;;;;;;;;;;;;;;;2.55;55.00;99825.13;4457226;32;34435;-90
2022/01/21 00:37:38;;;;;;;;;;;;;;;2.41;55.01;99821.41;4451370;32;35268;-89
2022/01/21 00:40:10;;;;;;;;;;;;;;;2.53;54.74;99808.84;4455475;32;35404;-89
2022/01/21 00:45:28;;;;;;;;;;;;;;;2.70;54.91;99800.66;4446858;32;34002;-89
2022/01/21 00:47:56;;;;;;;;;;;;;;;2.69;55.17;99811.75;4456607;32;34393;-89
2022/01/21 00:50:24;;;;;;;;;;;;;;;2.78;54.56;99810.25;4454636;32;34583;-89
2022/01/21 00:52:54;;;;;;;;;;;;;;;2.90;54.48;99807.06;4452915;32;34043;-89
2022/01/21 00:55:23;;;;;;;;;;;;;;;3.05;53.52;99798.81;4446129;32;34115;-89
2022/01/21 00:57:51;;;;;;;;;;;;;;;2.91;54.12;99807.94;4452337;32;34940;-89
2022/01/21 01:00:22;;;;;;;;;;;;;;;2.88;54.31;99823.25;4453186;32;34347;-88
2022/01/21 01:02:50;;;;;;;;;;;;;;;2.60;54.75;99821.81;4444242;32;33222;-89
2022/01/21 01:05:19;;;;;;;;;;;;;;;2.47;55.63;99830.94;4456888;32;34469;-89
2022/01/21 01:07:48;;;;;;;;;;;;;;;2.69;55.28;99830.56;4457226;32;34998;-88
2022/01/21 01:10:24;;;;;;;;;;;;;;;2.62;55.39;99832.97;4449237;32;33720;-89
2022/01/21 01:13:00;;;;;;;;;;;;;;;2.76;54.83;99831.53;4446121;32;32656;-89
2022/01/21 01:20:57;;;;;;;;;;;;;;;2.04;56.44;99825.69;4445826;32;33718;-90
2022/01/21 01:23:37;;;;;;;;;;;;;;;2.00;56.54;99834.13;4455062;32;33389;-89
2022/01/21 01:28:55;;;;;;;;;;;;;;;1.75;57.83;99835.25;4449769;32;34372;-89
2022/01/21 01:31:23;;;;;;;;;;;;;;;1.99;57.23;99834.13;4451213;32;35150;-90
2022/01/21 01:33:53;;;;;;;;;;;;;;;2.11;56.62;99839.50;4454617;32;33781;-89
2022/01/21 01:36:21;;;;;;;;;;;;;;;1.82;57.57;99839.69;4450998;32;34045;-90
2022/01/21 01:39:07;;;;;;;;;;;;;;;1.73;58.06;99846.28;4451820;32;34448;-89
2022/01/21 01:41:40;;;;;;;;;;;;;;;1.88;57.31;99850.03;4455936;32;34722;-90
2022/01/21 01:49:41;;;;;;;;;;;;;;;1.47;58.75;99846.47;4466045;32;35849;-90
2022/01/21 01:52:10;;;;;;;;;;;;;;;1.34;59.33;99844.44;4449610;32;33674;-89
2022/01/21 01:54:41;;;;;;;;;;;;;;;1.37;59.70;99852.16;4451077;32;33359;-90
2022/01/21 01:57:11;;;;;;;;;;;;;;;1.22;60.57;99863.72;4461545;32;34377;-90
2022/01/21 01:59:39;;;;;;;;;;;;;;;1.13;61.24;99866.00;4447527;32;32948;-88
2022/01/21 02:02:09;;;;;;;;;;;;;;;1.06;61.93;99864.09;4450919;32;33139;-89
2022/01/21 02:04:39;;;;;;;;;;;;;;;0.75;63.51;99868.38;4454864;32;33081;-89
2022/01/21 02:07:07;;;;;;;;;;;;;;;0.92;63.20;99863.75;4450768;32;34878;-89
2022/01/21 02:09:36;;;;;;;;;;;;;;;1.03;63.28;99866.59;4451195;32;35596;-89
2022/01/21 02:12:05;;;;;;;;;;;;;;;1.39;61.90;99864.16;4448707;32;33977;-88
2022/01/21 02:14:37;;;;;;;;;;;;;;;1.27;62.42;99871.50;4454024;32;33271;-89
2022/01/21 02:17:24;;;;;;;;;;;;;;;1.26;62.73;99878.31;4445647;32;33935;-88
2022/01/21 02:22:44;;;;;;;;;;;;;;;1.16;63.09;99865.22;4452294;32;35116;-89
2022/01/21 02:25:17;;;;;;;;;;;;;;;1.45;62.38;99855.78;4447621;32;33201;-89
2022/01/21 02:27:47;;;;;;;;;;;;;;;1.48;61.73;99849.06;4458949;32;34508;-90
2022/01/21 02:30:19;;;;;;;;;;;;;;;1.81;60.87;99843.09;4449698;32;35504;-89
2022/01/21 02:32:48;;;;;;;;;;;;;;;1.70;61.65;99844.50;4449931;32;34720;-89
2022/01/21 02:35:17;;;;;;;;;;;;;;;1.66;61.78;99848.66;4449316;32;34053;-89
2022/01/21 02:37:47;;;;;;;;;;;;;;;1.92;60.63;99848.44;4451022;32;34056;-88
2022/01/21 02:40:18;;;;;;;;;;;;;;;2.02;59.98;99842.72;4459592;32;35457;-89
2022/01/21 02:42:47;;;;;;;;;;;;;;;1.92;60.42;99840.78;4452521;32;35394;-90
2022/01/21 02:45:16;;;;;;;;;;;;;;;1.84;60.61;99832.91;4454264;32;32856;-89
2022/01/21 02:47:45;;;;;;;;;;;;;;;1.70;60.93;99816.38;4447964;32;33635;-90
2022/01/21 02:50:13;;;;;;;;;;;;;;;1.94;60.19;99822.91;4448231;32;33530;-88
2022/01/21 02:52:54;;;;;;;;;;;;;;;1.81;60.54;99831.97;4456738;32;34935;-91
2022/01/21 02:55:25;;;;;;;;;;;;;;;1.67;60.67;99850.41;4458292;32;33550;-88
2022/01/21 02:57:54;;;;;;;;;;;;;;;1.39;61.64;99855.63;4446525;32;33212;-88
2022/01/21 03:00:22;;;;;;;;;;;;;;;1.31;62.19;99836.69;4446921;32;34634;-88
2022/01/21 03:02:50;;;;;;;;;;;;;;;1.33;61.51;99845.22;4446761;32;35495;-88
2022/01/21 03:05:20;;;;;;;;;;;;;;;1.38;61.86;99838.56;4448679;32;34695;-89
2022/01/21 03:07:49;;;;;;;;;;;;;;;1.33;62.03;99845.22;4458434;32;35450;-88
2022/01/21 03:10:18;;;;;;;;;;;;;;;1.36;61.98;99855.56;4455144;32;34190;-89
2022/01/21 03:12:48;;;;;;;;;;;;;;;1.66;61.16;99858.03;4458101;32;34479;-88
2022/01/21 03:15:16;;;;;;;;;;;;;;;1.43;61.76;99857.44;4460261;32;33001;-88
2022/01/21 03:17:44;;;;;;;;;;;;;;;1.63;61.33;99856.25;4452684;32;33779;-88
2022/01/21 03:20:13;;;;;;;;;;;;;;;1.58;61.18;99845.06;4452736;32;35391;-88
2022/01/21 03:22:42;;;;;;;;;;;;;;;1.22;62.19;99861.16;4452219;32;33516;-88
2022/01/21 03:25:10;;;;;;;;;;;;;;;1.01;62.76;99853.75;4451502;32;34363;-88
2022/01/21 03:27:39;;;;;;;;;;;;;;;1.12;62.56;99869.41;4449536;32;34946;-88
2022/01/21 03:30:12;;;;;;;;;;;;;;;1.08;63.10;99879.50;4455548;32;35326;-89
2022/01/21 03:32:41;;;;;;;;;;;;;;;0.94;63.38;99877.41;4452917;32;31552;-89
2022/01/21 03:35:10;;;;;;;;;;;;;;;1.05;63.45;99883.69;4453841;32;33110;-90
2022/01/21 03:37:39;;;;;;;;;;;;;;;1.01;62.98;99874.19;4459781;32;34572;-89
2022/01/21 03:40:08;;;;;;;;;;;;;;;1.00;62.67;99876.72;4454489;32;34143;-89
2022/01/21 03:42:37;;;;;;;;;;;;;;;0.78;62.56;99875.25;4448839;32;34150;-88
2022/01/21 03:45:06;;;;;;;;;;;;;;;1.06;62.34;99880.31;4456025;32;33382;-89
2022/01/21 03:47:36;;;;;;;;;;;;;;;1.26;61.21;99880.00;4460193;32;34070;-89
2022/01/21 03:50:21;;;;;;;;;;;;;;;1.18;61.42;99876.34;4446826;32;34246;-88
2022/01/21 03:52:50;;;;;;;;;;;;;;;1.11;61.62;99869.34;4458258;32;34054;-88
2022/01/21 03:55:18;;;;;;;;;;;;;;;1.22;60.54;99875.62;4452794;32;33210;-88
2022/01/21 03:57:47;;;;;;;;;;;;;;;1.20;60.36;99870.47;4453621;32;34393;-89
2022/01/21 04:00:17;;;;;;;;;;;;;;;0.98;60.90;99870.69;4455546;32;34315;-90
2022/01/21 04:02:46;;;;;;;;;;;;;;;0.92;60.96;99873.97;4458717;32;37296;-89
2022/01/21 04:05:16;;;;;;;;;;;;;;;0.72;60.54;99878.47;4448681;32;33414;-89
2022/01/21 04:07:44;;;;;;;;;;;;;;;0.46;60.95;99869.16;4455589;32;34907;-89
2022/01/21 04:10:12;;;;;;;;;;;;;;;0.51;61.06;99868.50;4467247;32;35451;-87
2022/01/21 04:12:42;;;;;;;;;;;;;;;0.42;61.08;99856.31;4456152;32;35304;-87
2022/01/21 04:15:11;;;;;;;;;;;;;;;0.33;61.08;99863.69;4447645;32;34305;-89
2022/01/21 04:17:39;;;;;;;;;;;;;;;0.34;60.41;99854.34;4458017;32;34639;-88
2022/01/21 04:20:12;;;;;;;;;;;;;;;0.27;60.20;99855.87;4451309;32;34318;-90
2022/01/21 04:22:41;;;;;;;;;;;;;;;0.17;60.45;99866.56;4451796;32;34052;-89
2022/01/21 04:25:10;;;;;;;;;;;;;;;0.17;59.73;99852.16;4454663;32;33409;-89
2022/01/21 04:27:39;;;;;;;;;;;;;;;0.13;59.76;99875.84;4453108;32;33856;-89
2022/01/21 04:30:08;;;;;;;;;;;;;;;0.08;59.89;99874.84;4448579;32;34542;-89
2022/01/21 04:32:37;;;;;;;;;;;;;;;0.09;59.83;99891.84;4472229;32;33185;-88
2022/01/21 04:35:07;;;;;;;;;;;;;;;-0.15;60.51;99886.81;4454292;32;34621;-88
2022/01/21 04:37:42;;;;;;;;;;;;;;;-0.09;59.99;99881.94;4456346;32;34695;-89
2022/01/21 04:40:14;;;;;;;;;;;;;;;-0.07;60.13;99890.50;4463774;32;34031;-88
2022/01/21 04:48:16;;;;;;;;;;;;;;;-0.06;59.62;99904.97;4450453;32;34174;-89
2022/01/21 04:50:54;;;;;;;;;;;;;;;0.01;59.72;99923.91;4455072;32;36642;-89
2022/01/21 04:53:25;;;;;;;;;;;;;;;0.08;59.64;99922.44;4456586;32;34028;-89
2022/01/21 04:55:53;;;;;;;;;;;;;;;0.21;58.61;99922.84;4454329;32;33092;-89
2022/01/21 04:58:22;;;;;;;;;;;;;;;-0.07;59.31;99933.88;4464296;32;34816;-89
2022/01/21 05:00:51;;;;;;;;;;;;;;;-0.23;59.95;99921.41;4455612;32;33926;-89
2022/01/21 05:03:20;;;;;;;;;;;;;;;-0.20;59.74;99941.03;4452291;32;35169;-88
2022/01/21 05:05:48;;;;;;;;;;;;;;;-0.34;60.31;99938.00;4456905;32;35202;-89
2022/01/21 05:08:25;;;;;;;;;;;;;;;-0.09;59.63;99938.03;4448050;32;34920;-89
2022/01/21 05:10:55;;;;;;;;;;;;;;;-0.16;59.58;99941.19;4456046;32;34293;-89
2022/01/21 05:13:27;;;;;;;;;;;;;;;0.07;59.19;99941.09;4452599;32;34245;-90
2022/01/21 05:16:01;;;;;;;;;;;;;;;0.22;58.21;99941.59;4454405;32;33819;-89
2022/01/21 05:18:30;;;;;;;;;;;;;;;0.11;58.53;99933.59;4452192;32;34871;-90
2022/01/21 05:21:03;;;;;;;;;;;;;;;0.04;58.33;99949.50;4460872;32;35021;-88
2022/01/21 05:23:32;;;;;;;;;;;;;;;-0.08;58.48;99949.09;4469751;32;34902;-89
2022/01/21 05:26:02;;;;;;;;;;;;;;;-0.30;59.19;99955.16;4467054;32;34497;-89
2022/01/21 05:28:31;;;;;;;;;;;;;;;-0.24;58.72;99970.69;4453782;32;36019;-88
2022/01/21 05:31:01;;;;;;;;;;;;;;;-0.14;58.30;99962.53;4450572;32;33191;-88
2022/01/21 05:33:31;;;;;;;;;;;;;;;-0.14;58.47;99966.75;4452570;32;34627;-89
2022/01/21 05:36:00;;;;;;;;;;;;;;;-0.18;58.61;99958.13;4448416;32;33704;-88
2022/01/21 05:38:29;;;;;;;;;;;;;;;-0.29;58.93;99954.31;4455134;32;33688;-89
2022/01/21 05:41:02;;;;;;;;;;;;;;;-0.37;59.28;99959.16;4447073;32;34340;-89
2022/01/21 05:43:33;;;;;;;;;;;;;;;-0.38;59.36;99956.59;4454694;32;33443;-88
2022/01/21 05:48:50;;;;;;;;;;;;;;;-0.21;58.92;99975.88;4464180;32;34938;-89
2022/01/21 05:51:23;;;;;;;;;;;;;;;-0.43;59.65;99972.56;4452510;32;34962;-89
2022/01/21 05:53:52;;;;;;;;;;;;;;;-0.47;59.88;99977.50;4457697;32;35031;-89
2022/01/21 05:56:24;;;;;;;;;;;;;;;-0.40;59.91;99978.59;4450180;32;33774;-89
2022/01/21 05:58:54;;;;;;;;;;;;;;;-0.47;59.70;99986.00;4451841;32;33970;-88
2022/01/21 06:01:22;;;;;;;;;;;;;;;-0.56;60.13;100002.66;4447154;32;34669;-89
2022/01/21 06:03:51;;;;;;;;;;;;;;;-0.31;59.41;100004.41;4450513;32;34225;-89
2022/01/21 06:06:20;;;;;;;;;;;;;;;-0.49;59.89;100005.47;4456585;32;33376;-90
2022/01/21 06:08:49;;;;;;;;;;;;;;;-0.30;59.43;100014.66;4457077;32;32851;-89
2022/01/21 06:11:17;;;;;;;;;;;;;;;-0.21;59.05;100029.41;4450536;32;34544;-90
2022/01/21 06:13:49;;;;;;;;;;;;;;;-0.12;58.72;100024.66;4452618;32;35299;-89
2022/01/21 06:16:20;;;;;;;;;;;;;;;-0.12;58.58;100033.97;4451912;32;32518;-90
2022/01/21 06:18:49;;;;;;;;;;;;;;;-0.53;59.63;100046.06;4451454;32;32890;-89
2022/01/21 06:21:17;;;;;;;;;;;;;;;-0.70;60.15;100053.97;4454383;32;34111;-89
2022/01/21 06:23:46;;;;;;;;;;;;;;;-0.40;59.21;100062.72;4448242;32;36344;-89
2022/01/21 06:26:15;;;;;;;;;;;;;;;-0.09;58.50;100068.09;4448033;32;33993;-89
2022/01/21 06:28:43;;;;;;;;;;;;;;;0.08;57.88;100072.94;4447051;32;32311;-89
2022/01/21 06:31:13;;;;;;;;;;;;;;;-0.01;58.03;100079.44;4449630;32;34172;-89
2022/01/21 06:33:42;;;;;;;;;;;;;;;0.02;58.07;100085.47;4456226;32;34254;-89
2022/01/21 06:36:10;;;;;;;;;;;;;;;-0.09;58.53;100087.63;4446939;32;34633;-88
2022/01/21 06:38:39;;;;;;;;;;;;;;;-0.43;59.20;100084.72;4456978;32;32935;-87
2022/01/21 06:41:07;;;;;;;;;;;;;;;-0.25;59.08;100094.72;4455891;32;34251;-88
2022/01/21 06:43:35;;;;;;;;;;;;;;;-0.22;58.66;100097.41;4448936;32;34954;-87
2022/01/21 06:46:04;;;;;;;;;;;;;;;-0.27;58.91;100095.47;4459582;32;32509;-87
2022/01/21 06:48:34;;;;;;;;;;;;;;;-0.39;59.23;100095.03;4454344;32;35015;-87
2022/01/21 06:51:08;;;;;;;;;;;;;;;-0.37;59.35;100111.25;4452249;32;34152;-88
2022/01/21 06:53:36;;;;;;;;;;;;;;;-0.47;59.59;100105.78;4451244;32;34430;-87
2022/01/21 06:56:05;;;;;;;;;;;;;;;-0.47;59.60;100116.00;4451922;32;32779;-87
2022/01/21 06:58:33;;;;;;;;;;;;;;;-0.43;59.16;100122.09;4456183;32;34393;-87
2022/01/21 07:01:02;;;;;;;;;;;;;;;-0.79;60.06;100127.50;4448417;32;35534;-87
2022/01/21 07:03:30;;;;;;;;;;;;;;;-0.76;60.14;100136.94;4454603;32;31770;-87
2022/01/21 07:06:01;;;;;;;;;;;;;;;-0.61;59.64;100131.56;4455525;32;33673;-88
2022/01/21 07:08:29;;;;;;;;;;;;;;;-0.35;58.56;100135.97;4450473;32;34078;-87
2022/01/21 07:10:57;;;;;;;;;;;;;;;-0.63;59.23;100139.16;4461618;32;35005;-88
2022/01/21 07:13:26;;;;;;;;;;;;;;;-0.64;59.26;100145.06;4448446;32;34165;-88
2022/01/21 07:15:54;;;;;;;;;;;;;;;-0.39;58.78;100158.75;4457638;32;33173;-87
2022/01/21 07:18:23;;;;;;;;;;;;;;;-0.30;58.39;100159.09;4447596;32;34170;-87
2022/01/21 07:20:51;;;;;;;;;;;;;;;-0.29;57.94;100165.94;4464006;32;34578;-88
2022/01/21 07:23:21;;;;;;;;;;;;;;;0.02;57.27;100177.28;4459334;32;33433;-87
2022/01/21 07:25:50;;;;;;;;;;;;;;;0.03;56.85;100174.81;4448177;32;33479;-88
2022/01/21 07:28:18;;;;;;;;;;;;;;;-0.09;57.04;100175.22;4456448;32;33551;-87
2022/01/21 07:30:47;;;;;;;;;;;;;;;-0.11;56.64;100174.28;4447187;32;35223;-88
2022/01/21 07:33:15;;;;;;;;;;;;;;;0.04;56.38;100178.22;4459411;32;34101;-88
2022/01/21 07:35:44;;;;;;;;;;;;;;;-0.10;56.47;100168.34;4458227;32;33417;-88
2022/01/21 07:38:12;;;;;;;;;;;;;;;-0.19;56.83;100159.50;4456912;32;34177;-88
2022/01/21 07:40:42;;;;;;;;;;;;;;;-0.18;57.20;100153.59;4454902;32;35005;-88
2022/01/21 07:43:11;;;;;;;;;;;;;;;0.25;55.72;100148.38;4448130;32;36794;-88
2022/01/21 07:45:41;;;;;;;;;;;;;;;0.16;55.64;100156.56;4450282;32;32805;-87
2022/01/21 07:48:10;;;;;;;;;;;;;;;0.29;55.10;100142.56;4454056;32;34134;-89
2022/01/21 07:50:39;;;;;;;;;;;;;;;0.20;55.15;100145.66;4457330;32;34219;-87
2022/01/21 07:53:07;;;;;;;;;;;;;;;0.07;55.10;100148.56;4455841;32;33945;-87
2022/01/21 07:55:36;;;;;;;;;;;;;;;-0.16;55.33;100141.78;4458993;32;33297;-88
2022/01/21 07:58:06;;;;;;;;;;;;;;;-0.08;55.17;100133.59;4458643;32;34804;-87
2022/01/21 08:00:34;;;;;;;;;;;;;;;-0.02;54.48;100153.38;4459149;32;34151;-88
2022/01/21 08:03:04;;;;;;;;;;;;;;;-0.20;55.07;100162.87;4448455;32;34018;-88
2022/01/21 08:05:34;;;;;;;;;;;;;;;-0.24;55.09;100167.00;4460240;32;33170;-88
2022/01/21 08:08:03;;;;;;;;;;;;;;;-0.07;54.66;100168.50;4453257;32;33402;-88
2022/01/21 08:10:33;;;;;;;;;;;;;;;-0.28;54.88;100158.34;4449496;32;32659;-87
2022/01/21 08:13:02;;;;;;;;;;;;;;;-0.41;55.17;100160.38;4454976;32;33791;-88
2022/01/21 08:15:32;;;;;;;;;;;;;;;-0.37;54.97;100152.03;4453835;32;32674;-88
2022/01/21 08:18:00;;;;;;;;;;;;;;;-0.39;54.91;100167.25;4448600;32;32855;-88
2022/01/21 08:20:29;;;;;;;;;;;;;;;-0.24;54.60;100157.66;4448186;32;34649;-87
2022/01/21 08:22:57;;;;;;;;;;;;;;;-0.06;54.04;100128.56;4448792;32;34908;-88
2022/01/21 08:25:26;;;;;;;;;;;;;;;-0.09;54.33;100134.41;4448566;32;33154;-87
2022/01/21 08:27:54;;;;;;;;;;;;;;;-0.20;54.18;100145.03;4464582;32;32796;-88
2022/01/21 08:30:23;;;;;;;;;;;;;;;-0.33;54.33;100146.25;4448800;32;34005;-88
2022/01/21 08:32:53;;;;;;;;;;;;;;;-0.12;53.82;100141.06;4454632;32;34183;-88
2022/01/21 08:35:21;;;;;;;;;;;;;;;-0.41;54.29;100151.06;4454043;32;32945;-89
2022/01/21 08:37:52;;;;;;;;;;;;;;;-0.46;54.61;100155.97;4458718;32;34191;-88
2022/01/21 08:40:20;;;;;;;;;;;;;;;-0.46;54.44;100157.62;4467395;32;33144;-88
2022/01/21 08:42:49;;;;;;;;;;;;;;;-0.39;54.67;100134.12;4449756;32;34715;-88
2022/01/21 08:45:17;;;;;;;;;;;;;;;-0.44;54.38;100145.81;4464085;32;30625;-88
2022/01/21 08:47:46;;;;;;;;;;;;;;;-0.36;54.65;100151.22;4453903;32;34170;-88
2022/01/21 08:50:17;;;;;;;;;;;;;;;-0.07;53.61;100160.84;4450446;32;34178;-88
2022/01/21 08:52:47;;;;;;;;;;;;;;;-0.16;53.70;100168.16;4459831;32;33809;-89
2022/01/21 08:55:16;;;;;;;;;;;;;;;-0.13;52.96;100168.25;4449612;32;33063;-88
2022/01/21 08:57:45;;;;;;;;;;;;;;;-0.34;53.80;100178.53;4450039;32;33998;-88
2022/01/21 09:00:15;;;;;;;;;;;;;;;-0.26;53.13;100192.44;4448879;32;34780;-89
2022/01/21 09:02:43;;;;;;;;;;;;;;;-0.16;53.43;100193.66;4449283;32;34369;-88
2022/01/21 09:05:12;;;;;;;;;;;;;;;-0.11;52.71;100206.56;4460080;32;32617;-88
2022/01/21 09:07:42;;;;;;;;;;;;;;;-0.06;52.27;100200.81;4460901;32;33654;-88
2022/01/21 09:10:14;;;;;;;;;;;;;;;-0.15;51.95;100214.91;4459869;32;34147;-88
2022/01/21 09:12:43;;;;;;;;;;;;;;;-0.04;52.31;100199.19;4462236;32;34947;-89
2022/01/21 09:15:12;;;;;;;;;;;;;;;0.06;52.06;100210.63;4454681;32;33706;-88
2022/01/21 09:17:41;;;;;;;;;;;;;;;0.44;51.32;100210.28;4461313;32;34759;-88
2022/01/21 09:20:09;;;;;;;;;;;;;;;0.67;50.70;100206.00;4468938;32;34191;-88
2022/01/21 09:22:38;;;;;;;;;;;;;;;0.44;50.33;100211.16;4449452;32;34217;-88
2022/01/21 09:25:08;;;;;;;;;;;;;;;0.68;50.35;100213.72;4462796;32;34987;-88
2022/01/21 09:27:37;;;;;;;;;;;;;;;0.19;51.17;100209.38;4458490;32;34544;-88
2022/01/21 09:30:06;;;;;;;;;;;;;;;0.27;51.02;100218.22;4463388;32;34577;-89
2022/01/21 09:32:35;;;;;;;;;;;;;;;0.27;50.63;100225.00;4456900;32;33548;-88
2022/01/21 09:35:04;;;;;;;;;;;;;;;0.18;51.33;100225.50;4460016;32;34019;-87
2022/01/21 09:37:32;;;;;;;;;;;;;;;0.48;50.45;100227.44;4458275;32;35010;-88
2022/01/21 09:40:00;;;;;;;;;;;;;;;0.55;50.24;100230.25;4452043;32;34957;-88
2022/01/21 09:42:33;;;;;;;;;;;;;;;0.66;49.84;100209.38;4455485;32;34220;-88
2022/01/21 09:45:03;;;;;;;;;;;;;;;0.70;50.11;100222.31;4454745;32;34088;-89
2022/01/21 09:47:32;;;;;;;;;;;;;;;0.96;49.93;100224.88;4465824;32;34837;-88
2022/01/21 09:50:01;;;;;;;;;;;;;;;0.62;50.84;100218.59;4453084;32;34102;-88
2022/01/21 09:52:29;;;;;;;;;;;;;;;0.61;51.32;100232.19;4449938;32;34362;-89
2022/01/21 09:54:58;;;;;;;;;;;;;;;0.49;51.54;100224.94;4449198;32;33341;-88
2022/01/21 09:57:28;;;;;;;;;;;;;;;0.40;51.63;100212.72;4453980;32;35100;-89
2022/01/21 09:59:58;;;;;;;;;;;;;;;0.42;51.80;100240.84;4454228;32;35322;-89
2022/01/21 10:02:28;;;;;;;;;;;;;;;0.56;51.53;100228.59;4459747;32;34249;-90
2022/01/21 10:04:57;;;;;;;;;;;;;;;0.89;50.90;100228.88;4461979;32;33939;-89
2022/01/21 10:07:26;;;;;;;;;;;;;;;0.83;50.70;100227.00;4456896;32;34859;-88
2022/01/21 10:09:54;;;;;;;;;;;;;;;1.25;50.27;100221.59;4453276;32;34079;-88
2022/01/21 10:12:24;;;;;;;;;;;;;;;1.20;50.29;100227.37;4460152;32;34603;-88
2022/01/21 10:14:53;;;;;;;;;;;;;;;0.95;50.44;100236.78;4453035;32;33683;-89
2022/01/21 10:17:56;;;;;;;;;;;;;;;1.26;50.14;100205.44;4451316;32;34011;-88
2022/01/21 10:20:39;;;;;;;;;;;;;;;1.10;50.40;100225.34;4447127;32;35649;-88
2022/01/21 10:23:09;;;;;;;;;;;;;;;1.21;50.94;100217.22;4452446;32;33142;-88
2022/01/21 10:25:40;;;;;;;;;;;;;;;1.08;50.41;100220.16;4450805;32;34038;-88
2022/01/21 10:28:09;;;;;;;;;;;;;;;0.99;51.11;100219.84;4449367;32;33903;-89
2022/01/21 10:30:38;;;;;;;;;;;;;;;1.42;50.49;100219.56;4458729;32;32777;-89
2022/01/21 10:33:20;;;;;;;;;;;;;;;1.36;49.67;100218.53;4464531;32;34392;-90
2022/01/21 10:35:51;;;;;;;;;;;;;;;1.26;50.09;100215.66;4460515;32;33193;-89
2022/01/21 10:38:23;;;;;;;;;;;;;;;0.94;50.90;100222.25;4455284;32;31429;-89
2022/01/21 10:40:51;;;;;;;;;;;;;;;1.14;51.15;100215.28;4457172;32;34029;-88
2022/01/21 10:43:22;;;;;;;;;;;;;;;1.06;51.42;100221.78;4455111;32;34097;-88
2022/01/21 10:45:52;;;;;;;;;;;;;;;1.11;51.72;100219.41;4457569;32;34109;-88
2022/01/21 10:48:21;;;;;;;;;;;;;;;1.18;51.31;100218.78;4463653;32;33272;-89
2022/01/21 10:51:04;;;;;;;;;;;;;;;1.12;51.94;100224.56;4455075;32;34330;-88
2022/01/21 10:53:34;;;;;;;;;;;;;;;1.20;51.50;100225.69;4455345;31;34187;-88
2022/01/21 10:56:08;;;;;;;;;;;;;;;1.37;51.43;100228.78;4454502;32;34338;-88
2022/01/21 10:58:41;;;;;;;;;;;;;;;1.00;52.00;100232.69;4462804;32;34375;-88
2022/01/21 11:01:12;;;;;;;;;;;;;;;1.31;51.74;100225.19;4465139;32;32596;-88
2022/01/21 11:03:56;;;;;;;;;;;;;;;1.24;51.71;100232.63;4455749;32;31816;-88
2022/01/21 11:06:26;;;;;;;;;;;;;;;1.17;51.96;100225.59;4452362;32;33326;-88
2022/01/21 11:09:10;;;;;;;;;;;;;;;1.30;51.96;100223.44;4460734;32;33773;-89
2022/01/21 11:11:40;;;;;;;;;;;;;;;1.42;51.79;100231.50;4464159;32;34491;-89
2022/01/21 11:14:12;;;;;;;;;;;;;;;1.46;51.57;100229.09;4459220;32;33738;-89
2022/01/21 11:16:45;;;;;;;;;;;;;;;1.55;51.55;100237.84;4462505;32;32757;-88
2022/01/21 11:19:36;;;;;;;;;;;;;;;1.64;51.33;100220.25;4457858;32;34116;-89
2022/01/21 11:22:05;;;;;;;;;;;;;;;1.63;50.78;100219.41;4459748;32;34974;-88
2022/01/21 11:24:33;;;;;;;;;;;;;;;1.26;52.12;100219.94;4451934;32;34141;-87
2022/01/21 11:27:07;;;;;;;;;;;;;;;1.32;51.58;100215.00;4453579;32;32762;-87
2022/01/21 11:29:35;;;;;;;;;;;;;;;1.17;51.97;100196.63;4452349;32;34151;-88
2022/01/21 11:32:04;;;;;;;;;;;;;;;1.29;51.92;100202.13;4457062;32;33996;-88
2022/01/21 11:34:33;;;;;;;;;;;;;;;1.41;51.41;100201.66;4448906;32;35250;-87
2022/01/21 11:37:01;;;;;;;;;;;;;;;1.20;51.44;100189.03;4448667;32;33092;-88
2022/01/21 11:39:31;;;;;;;;;;;;;;;1.31;51.31;100171.50;4456554;32;35297;-87
2022/01/21 11:42:00;;;;;;;;;;;;;;;1.54;50.78;100170.53;4452622;32;34004;-88
2022/01/21 11:44:30;;;;;;;;;;;;;;;1.73;50.19;100166.84;4455016;32;34450;-87
2022/01/21 11:47:13;;;;;;;;;;;;;;;1.74;50.19;100162.56;4457067;32;31836;-87
2022/01/21 11:49:42;;;;;;;;;;;;;;;1.61;50.02;100143.44;4450473;32;34877;-88
2022/01/21 11:52:13;;;;;;;;;;;;;;;1.48;50.36;100135.41;4458376;32;34693;-87
2022/01/21 11:54:42;;;;;;;;;;;;;;;1.62;50.50;100129.84;4457935;32;34435;-88
2022/01/21 11:57:12;;;;;;;;;;;;;;;1.45;49.64;100121.66;4455067;32;33235;-87
2022/01/21 11:59:50;;;;;;;;;;;;;;;1.65;49.71;100128.25;4458228;32;32836;-89
2022/01/21 12:02:21;;;;;;;;;;;;;;;1.85;48.62;100115.16;4449978;32;33992;-87
2022/01/21 12:04:50;;;;;;;;;;;;;;;1.78;49.02;100116.69;4448496;32;34041;-87
2022/01/21 12:07:40;;;;;;;;;;;;;;;1.81;48.80;100103.09;4447695;32;34288;-89
2022/01/21 12:10:09;;;;;;;;;;;;;;;1.96;48.38;100102.66;4454868;32;34545;-87
2022/01/21 12:12:59;;;;;;;;;;;;;;;1.99;48.28;100098.53;4449970;32;35084;-86
2022/01/21 12:15:51;;;;;;;;;;;;;;;1.75;48.59;100110.63;4453651;32;33844;-87
2022/01/21 12:18:40;;;;;;;;;;;;;;;1.53;49.31;100096.34;4447915;32;31926;-89
2022/01/21 12:21:24;;;;;;;;;;;;;;;1.55;49.22;100110.00;4455573;32;36356;-89
2022/01/21 12:23:58;;;;;;;;;;;;;;;1.33;49.68;100111.94;4464692;32;35151;-89
2022/01/21 12:26:26;;;;;;;;;;;;;;;1.06;50.71;100117.03;4450459;32;35400;-87
2022/01/21 12:29:13;;;;;;;;;;;;;;;1.31;50.10;100099.94;4448378;32;33843;-87
2022/01/21 12:31:54;;;;;;;;;;;;;;;1.32;49.60;100099.09;4441426;32;34861;-89
2022/01/21 12:34:25;;;;;;;;;;;;;;;1.67;48.71;100101.03;4448476;32;36009;-89
2022/01/21 12:36:55;;;;;;;;;;;;;;;1.41;48.56;100086.62;4448296;32;33354;-88
2022/01/21 12:39:36;;;;;;;;;;;;;;;1.21;49.04;100094.53;4452943;32;33473;-86
2022/01/21 12:42:24;;;;;;;;;;;;;;;1.56;49.16;100087.06;4447169;32;33992;-88
2022/01/21 12:44:53;;;;;;;;;;;;;;;1.58;49.21;100082.84;4455864;32;34259;-89
2022/01/21 12:47:34;;;;;;;;;;;;;;;1.65;48.91;100087.34;4452471;32;35412;-87
2022/01/21 12:50:07;;;;;;;;;;;;;;;1.78;49.04;100077.44;4459065;32;33789;-89
2022/01/21 12:52:51;;;;;;;;;;;;;;;1.45;49.68;100089.31;4459617;32;33692;-86
2022/01/21 12:58:10;;;;;;;;;;;;;;;1.81;49.21;100100.53;4454808;32;31807;-89
2022/01/21 13:00:39;;;;;;;;;;;;;;;1.97;48.72;100095.03;4450567;32;34696;-88
2022/01/21 13:03:16;;;;;;;;;;;;;;;2.06;47.86;100090.19;4449167;32;32610;-87
2022/01/21 13:05:46;;;;;;;;;;;;;;;1.91;48.06;100118.78;4451648;32;34381;-88
2022/01/21 13:08:17;;;;;;;;;;;;;;;1.69;48.88;100124.97;4455347;32;34115;-85
2022/01/21 13:10:46;;;;;;;;;;;;;;;1.56;48.67;100143.31;4451245;32;33323;-87
2022/01/21 13:13:23;;;;;;;;;;;;;;;1.62;48.41;100102.59;4454842;32;34437;-86
2022/01/21 13:15:55;;;;;;;;;;;;;;;1.56;48.03;100133.09;4448830;32;32805;-87
2022/01/21 13:18:25;;;;;;;;;;;;;;;1.66;48.24;100144.44;4448511;32;31371;-88
2022/01/21 13:20:55;;;;;;;;;;;;;;;1.60;48.30;100123.81;4446157;32;32081;-87
2022/01/21 13:23:33;;;;;;;;;;;;;;;1.45;47.49;100114.87;4457901;32;34463;-88
2022/01/21 13:26:12;;;;;;;;;;;;;;;1.61;47.31;100123.00;4451057;32;33822;-89
2022/01/21 13:29:02;;;;;;;;;;;;;;;1.59;47.06;100112.72;4459374;32;35494;-87
2022/01/21 13:31:32;;;;;;;;;;;;;;;1.72;46.71;100119.06;4455031;32;34102;-86
2022/01/21 13:34:16;;;;;;;;;;;;;;;1.76;46.31;100126.00;4449362;32;32546;-88
2022/01/21 13:36:46;;;;;;;;;;;;;;;1.82;46.06;100115.94;4459444;32;34197;-87
2022/01/21 13:39:15;;;;;;;;;;;;;;;1.90;45.88;100114.47;4456496;32;34348;-86
2022/01/21 13:41:51;;;;;;;;;;;;;;;1.79;46.34;100105.63;4452671;32;33058;-87
2022/01/21 13:44:32;;;;;;;;;;;;;;;1.71;46.75;100112.22;4451915;32;33569;-86
2022/01/21 13:47:01;;;;;;;;;;;;;;;1.79;45.77;100104.75;4464786;32;34246;-89